sensor_id;sensor_type;location;lat;lon;timestamp;pressure;altitude;pressure_sealevel;temperature;humidity
65756;BME280;52489;47.502;18.940;2022-08-11T00:00:57;98640.12;;;19.22;48.32
65756;BME280;52489;47.502;18.940;2022-08-11T00:02:01;98650.19;;;19.29;47.94
65756;BME280;52489;47.502;18.940;2022-08-11T00:03:06;98649.19;;;19.21;48.07
65756;BME280;52489;47.502;18.940;2022-08-11T00:04:11;98646.44;;;19.18;48.35
65756;BME280;52489;47.502;18.940;2022-08-11T00:05:20;98638.63;;;19.09;48.53
65756;BME280;52489;47.502;18.940;2022-08-11T00:06:29;98648.12;;;19.10;48.13
65756;BME280;52489;47.502;18.940;2022-08-11T00:07:33;98644.91;;;19.17;48.79
65756;BME280;52489;47.502;18.940;2022-08-11T00:08:37;98646.69;;;19.13;48.60
65756;BME280;52489;47.502;18.940;2022-08-11T00:09:40;98644.03;;;19.13;48.47
65756;BME280;52489;47.502;18.940;2022-08-11T00:10:56;98646.38;;;19.02;48.67
65756;BME280;52489;47.502;18.940;2022-08-11T00:12:02;98638.44;;;19.02;48.53
65756;BME280;52489;47.502;18.940;2022-08-11T00:13:06;98642.91;;;19.14;48.37
65756;BME280;52489;47.502;18.940;2022-08-11T00:14:25;98641.50;;;19.04;48.43
65756;BME280;52489;47.502;18.940;2022-08-11T00:15:43;98640.59;;;19.12;48.48
65756;BME280;52489;47.502;18.940;2022-08-11T00:16:54;98640.06;;;19.06;48.76
65756;BME280;52489;47.502;18.940;2022-08-11T00:18:00;98640.91;;;19.10;48.49
65756;BME280;52489;47.502;18.940;2022-08-11T00:19:04;98639.59;;;19.04;48.44
65756;BME280;52489;47.502;18.940;2022-08-11T00:20:10;98644.16;;;19.04;48.53
65756;BME280;52489;47.502;18.940;2022-08-11T00:21:19;98640.41;;;19.05;48.57
65756;BME280;52489;47.502;18.940;2022-08-11T00:22:45;98634.31;;;19.04;48.52
65756;BME280;52489;47.502;18.940;2022-08-11T00:23:54;98638.06;;;19.03;48.65
65756;BME280;52489;47.502;18.940;2022-08-11T00:25:00;98634.66;;;19.03;48.64
65756;BME280;52489;47.502;18.940;2022-08-11T00:26:12;98630.34;;;18.98;48.92
65756;BME280;52489;47.502;18.940;2022-08-11T00:27:15;98624.34;;;19.01;48.60
65756;BME280;52489;47.502;18.940;2022-08-11T00:28:29;98632.31;;;19.01;48.63
65756;BME280;52489;47.502;18.940;2022-08-11T00:29:33;98632.13;;;18.94;48.85
65756;BME280;52489;47.502;18.940;2022-08-11T00:30:39;98633.56;;;18.92;49.06
65756;BME280;52489;47.502;18.940;2022-08-11T00:31:47;98625.38;;;18.97;48.86
65756;BME280;52489;47.502;18.940;2022-08-11T00:32:54;98625.69;;;18.95;48.87
65756;BME280;52489;47.502;18.940;2022-08-11T00:33:59;98622.94;;;18.92;48.96
65756;BME280;52489;47.502;18.940;2022-08-11T00:35:04;98627.94;;;18.93;49.29
65756;BME280;52489;47.502;18.940;2022-08-11T00:36:38;98620.28;;;18.92;49.07
65756;BME280;52489;47.502;18.940;2022-08-11T00:37:47;98628.44;;;18.99;48.76
65756;BME280;52489;47.502;18.940;2022-08-11T00:38:51;98625.66;;;19.07;48.77
65756;BME280;52489;47.502;18.940;2022-08-11T00:39:56;98628.66;;;19.06;48.36
65756;BME280;52489;47.502;18.940;2022-08-11T00:42:52;98612.50;;;19.11;48.50
65756;BME280;52489;47.502;18.940;2022-08-11T00:44:06;98618.91;;;19.10;48.33
65756;BME280;52489;47.502;18.940;2022-08-11T00:45:33;98612.28;;;19.04;48.46
65756;BME280;52489;47.502;18.940;2022-08-11T00:47:01;98620.56;;;19.15;48.44
65756;BME280;52489;47.502;18.940;2022-08-11T00:48:28;98620.13;;;19.13;48.51
65756;BME280;52489;47.502;18.940;2022-08-11T00:51:12;98621.91;;;19.08;48.63
65756;BME280;52489;47.502;18.940;2022-08-11T00:53:07;98615.84;;;19.08;48.64
65756;BME280;52489;47.502;18.940;2022-08-11T00:58:03;98617.88;;;19.27;47.79
65756;BME280;52489;47.502;18.940;2022-08-11T01:02:46;98621.16;;;19.08;48.62
65756;BME280;52489;47.502;18.940;2022-08-11T01:04:09;98621.25;;;19.12;48.54
65756;BME280;52489;47.502;18.940;2022-08-11T01:09:11;98614.37;;;19.10;48.59
65756;BME280;52489;47.502;18.940;2022-08-11T01:22:00;98610.97;;;18.98;49.43
65756;BME280;52489;47.502;18.940;2022-08-11T01:34:09;98606.47;;;18.86;49.79
65756;BME280;52489;47.502;18.940;2022-08-11T01:40:19;98603.06;;;18.85;49.82
65756;BME280;52489;47.502;18.940;2022-08-11T01:46:53;98603.59;;;18.91;49.82
65756;BME280;52489;47.502;18.940;2022-08-11T01:52:20;98603.28;;;18.80;50.07
65756;BME280;52489;47.502;18.940;2022-08-11T01:54:02;98596.44;;;18.79;50.10
65756;BME280;52489;47.502;18.940;2022-08-11T01:55:36;98603.53;;;18.75;50.38
65756;BME280;52489;47.502;18.940;2022-08-11T01:59:17;98595.41;;;18.72;50.58
65756;BME280;52489;47.502;18.940;2022-08-11T02:00:26;98595.75;;;18.70;50.41
65756;BME280;52489;47.502;18.940;2022-08-11T02:07:16;98596.34;;;18.76;50.19
65756;BME280;52489;47.502;18.940;2022-08-11T02:10:17;98587.78;;;18.82;50.11
65756;BME280;52489;47.502;18.940;2022-08-11T02:11:58;98592.25;;;18.78;50.16
65756;BME280;52489;47.502;18.940;2022-08-11T02:14:44;98589.56;;;18.66;50.85
65756;BME280;52489;47.502;18.940;2022-08-11T02:17:41;98592.00;;;18.71;50.57
65756;BME280;52489;47.502;18.940;2022-08-11T02:19:00;98585.28;;;18.74;50.43
65756;BME280;52489;47.502;18.940;2022-08-11T02:20:42;98578.06;;;18.74;50.48
65756;BME280;52489;47.502;18.940;2022-08-11T02:24:05;98597.41;;;18.62;51.08
65756;BME280;52489;47.502;18.940;2022-08-11T02:25:34;98601.97;;;18.62;50.89
65756;BME280;52489;47.502;18.940;2022-08-11T02:26:43;98597.87;;;18.64;50.96
65756;BME280;52489;47.502;18.940;2022-08-11T02:28:11;98604.50;;;18.71;50.83
65756;BME280;52489;47.502;18.940;2022-08-11T02:29:44;98603.06;;;18.61;51.15
65756;BME280;52489;47.502;18.940;2022-08-11T02:31:10;98600.63;;;18.56;51.48
65756;BME280;52489;47.502;18.940;2022-08-11T02:36:09;98594.66;;;18.59;51.36
65756;BME280;52489;47.502;18.940;2022-08-11T02:37:24;98587.72;;;18.42;51.88
65756;BME280;52489;47.502;18.940;2022-08-11T02:41:24;98587.38;;;18.56;51.40
65756;BME280;52489;47.502;18.940;2022-08-11T02:42:58;98582.94;;;18.60;51.27
65756;BME280;52489;47.502;18.940;2022-08-11T02:45:30;98579.41;;;18.56;51.32
65756;BME280;52489;47.502;18.940;2022-08-11T02:46:56;98584.63;;;18.52;51.31
65756;BME280;52489;47.502;18.940;2022-08-11T02:52:28;98581.50;;;18.62;51.38
65756;BME280;52489;47.502;18.940;2022-08-11T02:55:17;98582.63;;;18.61;51.47
65756;BME280;52489;47.502;18.940;2022-08-11T02:56:53;98589.25;;;18.55;51.56
65756;BME280;52489;47.502;18.940;2022-08-11T03:00:03;98586.50;;;18.52;51.73
65756;BME280;52489;47.502;18.940;2022-08-11T03:01:28;98580.84;;;18.53;51.76
65756;BME280;52489;47.502;18.940;2022-08-11T03:02:52;98582.16;;;18.59;51.67
65756;BME280;52489;47.502;18.940;2022-08-11T03:04:00;98580.53;;;18.55;51.57
65756;BME280;52489;47.502;18.940;2022-08-11T03:09:41;98581.19;;;18.39;52.16
65756;BME280;52489;47.502;18.940;2022-08-11T03:12:18;98585.81;;;18.42;52.19
65756;BME280;52489;47.502;18.940;2022-08-11T03:15:55;98580.09;;;18.40;52.16
65756;BME280;52489;47.502;18.940;2022-08-11T03:18:55;98589.03;;;18.36;52.22
65756;BME280;52489;47.502;18.940;2022-08-11T03:20:10;98591.28;;;18.34;52.30
65756;BME280;52489;47.502;18.940;2022-08-11T03:21:23;98595.12;;;18.36;52.50
65756;BME280;52489;47.502;18.940;2022-08-11T03:22:51;98588.72;;;18.37;52.27
65756;BME280;52489;47.502;18.940;2022-08-11T03:23:58;98592.03;;;18.34;52.23
65756;BME280;52489;47.502;18.940;2022-08-11T03:26:51;98588.72;;;18.37;52.19
65756;BME280;52489;47.502;18.940;2022-08-11T03:28:29;98585.72;;;18.39;52.24
65756;BME280;52489;47.502;18.940;2022-08-11T03:29:38;98585.59;;;18.48;51.67
65756;BME280;52489;47.502;18.940;2022-08-11T03:32:21;98590.03;;;18.56;51.51
65756;BME280;52489;47.502;18.940;2022-08-11T03:33:32;98586.62;;;18.43;52.03
65756;BME280;52489;47.502;18.940;2022-08-11T03:34:59;98595.00;;;18.33;52.17
65756;BME280;52489;47.502;18.940;2022-08-11T03:37:50;98594.56;;;18.31;52.00
65756;BME280;52489;47.502;18.940;2022-08-11T03:39:09;98587.81;;;18.33;51.84
65756;BME280;52489;47.502;18.940;2022-08-11T03:45:14;98591.13;;;18.42;51.96
65756;BME280;52489;47.502;18.940;2022-08-11T03:46:28;98593.00;;;18.54;51.55
65756;BME280;52489;47.502;18.940;2022-08-11T03:47:59;98593.66;;;18.51;51.64
65756;BME280;52489;47.502;18.940;2022-08-11T03:52:04;98597.91;;;18.40;52.20
65756;BME280;52489;47.502;18.940;2022-08-11T03:53:16;98599.53;;;18.45;51.97
65756;BME280;52489;47.502;18.940;2022-08-11T04:00:28;98593.13;;;18.46;51.74
65756;BME280;52489;47.502;18.940;2022-08-11T04:14:45;98607.03;;;18.67;51.18
65756;BME280;52489;47.502;18.940;2022-08-11T04:19:18;98603.59;;;18.54;51.58
65756;BME280;52489;47.502;18.940;2022-08-11T04:20:18;98601.53;;;18.48;52.07
65756;BME280;52489;47.502;18.940;2022-08-11T04:27:24;98596.75;;;18.65;51.50
65756;BME280;52489;47.502;18.940;2022-08-11T04:29:02;98600.63;;;18.56;51.90
65756;BME280;52489;47.502;18.940;2022-08-11T04:30:26;98596.88;;;18.57;51.70
65756;BME280;52489;47.502;18.940;2022-08-11T04:33:16;98605.50;;;18.54;52.21
65756;BME280;52489;47.502;18.940;2022-08-11T04:41:18;98607.59;;;18.85;50.95
65756;BME280;52489;47.502;18.940;2022-08-11T04:49:24;98614.22;;;18.91;50.65
65756;BME280;52489;47.502;18.940;2022-08-11T04:51:01;98615.88;;;18.83;51.06
65756;BME280;52489;47.502;18.940;2022-08-11T04:52:54;98609.22;;;18.90;50.76
65756;BME280;52489;47.502;18.940;2022-08-11T04:54:39;98614.00;;;18.84;50.82
65756;BME280;52489;47.502;18.940;2022-08-11T04:56:19;98612.22;;;18.88;51.05
65756;BME280;52489;47.502;18.940;2022-08-11T05:00:09;98606.31;;;19.07;50.34
65756;BME280;52489;47.502;18.940;2022-08-11T05:06:38;98611.69;;;19.23;49.80
65756;BME280;52489;47.502;18.940;2022-08-11T05:09:27;98609.44;;;19.25;50.09
65756;BME280;52489;47.502;18.940;2022-08-11T05:12:28;98607.09;;;19.36;49.46
65756;BME280;52489;47.502;18.940;2022-08-11T05:13:33;98612.84;;;19.38;50.26
65756;BME280;52489;47.502;18.940;2022-08-11T05:14:58;98616.41;;;19.29;50.28
65756;BME280;52489;47.502;18.940;2022-08-11T05:16:27;98617.81;;;19.39;50.32
65756;BME280;52489;47.502;18.940;2022-08-11T05:17:59;98615.44;;;19.50;50.14
65756;BME280;52489;47.502;18.940;2022-08-11T05:19:22;98627.28;;;19.52;49.71
65756;BME280;52489;47.502;18.940;2022-08-11T05:20:53;98626.00;;;19.46;49.79
65756;BME280;52489;47.502;18.940;2022-08-11T05:22:16;98618.28;;;19.57;49.69
65756;BME280;52489;47.502;18.940;2022-08-11T05:23:48;98625.00;;;19.67;49.24
65756;BME280;52489;47.502;18.940;2022-08-11T05:25:29;98627.44;;;19.72;49.41
65756;BME280;52489;47.502;18.940;2022-08-11T05:27:14;98633.19;;;19.90;48.81
65756;BME280;52489;47.502;18.940;2022-08-11T05:28:41;98621.53;;;19.94;48.16
65756;BME280;52489;47.502;18.940;2022-08-11T05:30:27;98627.28;;;20.12;47.86
65756;BME280;52489;47.502;18.940;2022-08-11T05:31:55;98632.00;;;20.19;47.92
65756;BME280;52489;47.502;18.940;2022-08-11T05:33:20;98624.72;;;20.16;48.05
65756;BME280;52489;47.502;18.940;2022-08-11T05:34:47;98630.38;;;20.30;47.11
65756;BME280;52489;47.502;18.940;2022-08-11T05:38:33;98635.75;;;20.50;46.33
65756;BME280;52489;47.502;18.940;2022-08-11T05:40:06;98637.75;;;20.53;46.62
65756;BME280;52489;47.502;18.940;2022-08-11T05:41:29;98631.22;;;20.66;45.98
65756;BME280;52489;47.502;18.940;2022-08-11T05:42:58;98631.16;;;20.82;45.64
65756;BME280;52489;47.502;18.940;2022-08-11T05:44:20;98629.69;;;20.84;45.40
65756;BME280;52489;47.502;18.940;2022-08-11T05:45:42;98631.25;;;20.85;45.54
65756;BME280;52489;47.502;18.940;2022-08-11T05:47:09;98628.16;;;20.83;46.02
65756;BME280;52489;47.502;18.940;2022-08-11T05:48:33;98633.00;;;20.78;46.04
65756;BME280;52489;47.502;18.940;2022-08-11T05:49:55;98632.78;;;20.86;45.69
65756;BME280;52489;47.502;18.940;2022-08-11T05:51:18;98628.09;;;20.99;45.15
65756;BME280;52489;47.502;18.940;2022-08-11T05:52:44;98633.50;;;21.03;44.35
65756;BME280;52489;47.502;18.940;2022-08-11T05:54:08;98641.09;;;21.01;44.67
65756;BME280;52489;47.502;18.940;2022-08-11T05:55:31;98636.53;;;21.01;44.81
65756;BME280;52489;47.502;18.940;2022-08-11T05:57:05;98635.75;;;21.20;45.23
65756;BME280;52489;47.502;18.940;2022-08-11T05:58:10;98627.84;;;21.24;44.11
65756;BME280;52489;47.502;18.940;2022-08-11T05:59:17;98635.63;;;21.32;44.33
65756;BME280;52489;47.502;18.940;2022-08-11T06:00:20;98631.59;;;21.39;44.63
65756;BME280;52489;47.502;18.940;2022-08-11T06:01:27;98633.47;;;21.38;43.88
65756;BME280;52489;47.502;18.940;2022-08-11T06:02:32;98635.84;;;21.43;43.77
65756;BME280;52489;47.502;18.940;2022-08-11T06:03:44;98638.16;;;21.64;43.77
65756;BME280;52489;47.502;18.940;2022-08-11T06:05:06;98639.88;;;21.76;43.63
65756;BME280;52489;47.502;18.940;2022-08-11T06:06:11;98635.56;;;21.91;42.80
65756;BME280;52489;47.502;18.940;2022-08-11T06:07:14;98633.56;;;22.07;43.03
65756;BME280;52489;47.502;18.940;2022-08-11T06:08:30;98634.59;;;22.22;41.94
65756;BME280;52489;47.502;18.940;2022-08-11T06:10:46;98638.88;;;22.30;42.02
65756;BME280;52489;47.502;18.940;2022-08-11T06:11:49;98643.06;;;22.28;42.26
65756;BME280;52489;47.502;18.940;2022-08-11T06:12:53;98632.22;;;22.17;42.28
65756;BME280;52489;47.502;18.940;2022-08-11T06:13:57;98638.47;;;22.05;41.97
65756;BME280;52489;47.502;18.940;2022-08-11T06:15:05;98638.28;;;22.40;41.35
65756;BME280;52489;47.502;18.940;2022-08-11T06:16:09;98634.00;;;22.36;41.10
65756;BME280;52489;47.502;18.940;2022-08-11T06:17:27;98637.91;;;22.42;41.19
65756;BME280;52489;47.502;18.940;2022-08-11T06:18:47;98634.75;;;22.59;40.67
65756;BME280;52489;47.502;18.940;2022-08-11T06:19:50;98639.81;;;22.68;40.42
65756;BME280;52489;47.502;18.940;2022-08-11T06:21:09;98637.63;;;22.74;41.06
65756;BME280;52489;47.502;18.940;2022-08-11T06:22:19;98638.06;;;22.79;40.95
65756;BME280;52489;47.502;18.940;2022-08-11T06:23:30;98636.44;;;22.71;40.93
65756;BME280;52489;47.502;18.940;2022-08-11T06:24:35;98635.47;;;22.56;40.97
65756;BME280;52489;47.502;18.940;2022-08-11T06:25:39;98633.00;;;22.44;41.23
65756;BME280;52489;47.502;18.940;2022-08-11T06:26:50;98636.34;;;22.64;41.08
65756;BME280;52489;47.502;18.940;2022-08-11T06:28:15;98625.19;;;22.85;40.92
65756;BME280;52489;47.502;18.940;2022-08-11T06:29:23;98632.72;;;23.06;40.13
65756;BME280;52489;47.502;18.940;2022-08-11T06:30:47;98631.31;;;23.15;40.28
65756;BME280;52489;47.502;18.940;2022-08-11T06:32:01;98628.81;;;23.30;39.59
65756;BME280;52489;47.502;18.940;2022-08-11T06:33:07;98629.94;;;23.29;39.62
65756;BME280;52489;47.502;18.940;2022-08-11T06:34:18;98632.31;;;23.34;39.75
65756;BME280;52489;47.502;18.940;2022-08-11T06:36:56;98634.38;;;23.51;39.06
65756;BME280;52489;47.502;18.940;2022-08-11T06:39:21;98634.44;;;23.21;39.35
65756;BME280;52489;47.502;18.940;2022-08-11T06:41:47;98631.31;;;23.15;38.70
65756;BME280;52489;47.502;18.940;2022-08-11T06:42:57;98641.00;;;23.27;39.51
65756;BME280;52489;47.502;18.940;2022-08-11T06:45:31;98634.19;;;23.33;39.21
65756;BME280;52489;47.502;18.940;2022-08-11T06:46:39;98630.72;;;23.67;38.20
65756;BME280;52489;47.502;18.940;2022-08-11T06:47:44;98635.47;;;23.43;38.67
65756;BME280;52489;47.502;18.940;2022-08-11T06:48:52;98641.03;;;23.65;38.82
65756;BME280;52489;47.502;18.940;2022-08-11T06:49:56;98634.78;;;23.87;38.38
65756;BME280;52489;47.502;18.940;2022-08-11T06:51:19;98635.84;;;23.79;39.22
65756;BME280;52489;47.502;18.940;2022-08-11T06:52:31;98630.94;;;23.84;38.32
65756;BME280;52489;47.502;18.940;2022-08-11T06:53:59;98629.59;;;24.09;38.11
65756;BME280;52489;47.502;18.940;2022-08-11T06:56:31;98639.31;;;24.31;36.72
65756;BME280;52489;47.502;18.940;2022-08-11T06:58:18;98622.13;;;24.32;36.17
65756;BME280;52489;47.502;18.940;2022-08-11T06:59:41;98624.97;;;24.57;36.25
65756;BME280;52489;47.502;18.940;2022-08-11T07:01:09;98621.94;;;24.55;36.29
65756;BME280;52489;47.502;18.940;2022-08-11T07:02:19;98624.31;;;24.71;36.07
65756;BME280;52489;47.502;18.940;2022-08-11T07:03:25;98627.34;;;24.69;35.87
65756;BME280;52489;47.502;18.940;2022-08-11T07:04:40;98625.41;;;24.66;35.83
65756;BME280;52489;47.502;18.940;2022-08-11T07:05:48;98626.66;;;24.83;35.46
65756;BME280;52489;47.502;18.940;2022-08-11T07:13:01;98618.78;;;25.15;33.94
65756;BME280;52489;47.502;18.940;2022-08-11T07:14:54;98625.00;;;25.48;33.35
65756;BME280;52489;47.502;18.940;2022-08-11T07:16:25;98622.34;;;25.73;33.54
65756;BME280;52489;47.502;18.940;2022-08-11T07:17:30;98625.03;;;25.59;33.87
65756;BME280;52489;47.502;18.940;2022-08-11T07:18:37;98618.91;;;25.62;33.79
65756;BME280;52489;47.502;18.940;2022-08-11T07:20:02;98615.91;;;25.89;33.58
65756;BME280;52489;47.502;18.940;2022-08-11T07:21:36;98611.66;;;25.80;33.27
65756;BME280;52489;47.502;18.940;2022-08-11T07:23:06;98617.03;;;26.20;32.58
65756;BME280;52489;47.502;18.940;2022-08-11T07:24:42;98623.56;;;26.22;31.20
65756;BME280;52489;47.502;18.940;2022-08-11T07:26:05;98623.53;;;26.29;31.24
65756;BME280;52489;47.502;18.940;2022-08-11T07:27:43;98617.81;;;25.99;32.35
65756;BME280;52489;47.502;18.940;2022-08-11T07:29:06;98619.34;;;25.89;32.77
65756;BME280;52489;47.502;18.940;2022-08-11T07:30:11;98614.69;;;25.68;32.84
65756;BME280;52489;47.502;18.940;2022-08-11T07:31:28;98617.03;;;26.05;31.76
65756;BME280;52489;47.502;18.940;2022-08-11T07:32:36;98617.03;;;26.23;32.26
65756;BME280;52489;47.502;18.940;2022-08-11T07:33:46;98623.53;;;26.40;31.97
65756;BME280;52489;47.502;18.940;2022-08-11T07:35:14;98619.34;;;26.18;32.08
65756;BME280;52489;47.502;18.940;2022-08-11T07:36:20;98615.91;;;26.06;31.50
65756;BME280;52489;47.502;18.940;2022-08-11T07:37:32;98625.06;;;26.23;30.62
65756;BME280;52489;47.502;18.940;2022-08-11T07:38:42;98618.97;;;26.01;31.52
65756;BME280;52489;47.502;18.940;2022-08-11T07:39:49;98625.47;;;26.07;31.06
65756;BME280;52489;47.502;18.940;2022-08-11T07:40:57;98627.38;;;26.14;31.33
65756;BME280;52489;47.502;18.940;2022-08-11T07:42:05;98628.94;;;26.15;31.03
65756;BME280;52489;47.502;18.940;2022-08-11T07:43:10;98627.75;;;26.41;30.86
65756;BME280;52489;47.502;18.940;2022-08-11T07:44:15;98633.88;;;26.49;30.93
65756;BME280;52489;47.502;18.940;2022-08-11T07:45:19;98632.75;;;26.50;30.32
65756;BME280;52489;47.502;18.940;2022-08-11T07:46:42;98618.56;;;26.28;32.06
65756;BME280;52489;47.502;18.940;2022-08-11T07:48:06;98622.00;;;26.46;30.93
65756;BME280;52489;47.502;18.940;2022-08-11T07:49:30;98621.53;;;26.84;29.67
65756;BME280;52489;47.502;18.940;2022-08-11T07:50:52;98623.06;;;26.85;29.20
65756;BME280;52489;47.502;18.940;2022-08-11T07:52:14;98614.22;;;26.95;28.39
65756;BME280;52489;47.502;18.940;2022-08-11T07:53:34;98620.41;;;26.77;28.76
65756;BME280;52489;47.502;18.940;2022-08-11T07:55:10;98619.69;;;26.66;29.60
65756;BME280;52489;47.502;18.940;2022-08-11T07:56:13;98616.97;;;26.70;30.20
65756;BME280;52489;47.502;18.940;2022-08-11T07:57:23;98619.22;;;26.93;29.78
65756;BME280;52489;47.502;18.940;2022-08-11T07:59:05;98622.13;;;27.27;28.22
65756;BME280;52489;47.502;18.940;2022-08-11T08:00:53;98625.75;;;26.92;28.71
65756;BME280;52489;47.502;18.940;2022-08-11T08:02:24;98617.28;;;26.90;29.17
65756;BME280;52489;47.502;18.940;2022-08-11T08:03:46;98616.84;;;27.06;28.72
65756;BME280;52489;47.502;18.940;2022-08-11T08:05:08;98617.59;;;27.06;29.44
65756;BME280;52489;47.502;18.940;2022-08-11T08:06:31;98615.72;;;27.07;28.79
65756;BME280;52489;47.502;18.940;2022-08-11T08:07:53;98616.88;;;27.02;28.19
65756;BME280;52489;47.502;18.940;2022-08-11T08:09:16;98622.31;;;26.84;29.21
65756;BME280;52489;47.502;18.940;2022-08-11T08:10:39;98619.91;;;27.08;27.85
65756;BME280;52489;47.502;18.940;2022-08-11T08:12:02;98612.19;;;27.20;27.88
65756;BME280;52489;47.502;18.940;2022-08-11T08:13:24;98610.75;;;26.98;27.91
65756;BME280;52489;47.502;18.940;2022-08-11T08:14:46;98614.13;;;27.13;28.40
65756;BME280;52489;47.502;18.940;2022-08-11T08:16:10;98619.13;;;27.18;28.22
65756;BME280;52489;47.502;18.940;2022-08-11T08:17:33;98610.44;;;26.67;29.54
65756;BME280;52489;47.502;18.940;2022-08-11T08:19:16;98612.00;;;26.61;29.91
65756;BME280;52489;47.502;18.940;2022-08-11T08:20:32;98613.22;;;25.92;31.35
65756;BME280;52489;47.502;18.940;2022-08-11T08:21:38;98620.09;;;26.11;31.11
65756;BME280;52489;47.502;18.940;2022-08-11T08:22:40;98620.87;;;26.51;30.58
65756;BME280;52489;47.502;18.940;2022-08-11T08:23:50;98622.75;;;26.43;29.94
65756;BME280;52489;47.502;18.940;2022-08-11T08:24:58;98622.78;;;26.40;30.04
65756;BME280;52489;47.502;18.940;2022-08-11T08:26:04;98618.94;;;26.37;30.05
65756;BME280;52489;47.502;18.940;2022-08-11T08:27:28;98617.75;;;26.67;29.60
65756;BME280;52489;47.502;18.940;2022-08-11T08:28:33;98610.38;;;26.92;30.45
65756;BME280;52489;47.502;18.940;2022-08-11T08:29:38;98612.00;;;26.65;30.67
65756;BME280;52489;47.502;18.940;2022-08-11T08:31:01;98616.63;;;26.57;30.01
65756;BME280;52489;47.502;18.940;2022-08-11T08:32:04;98614.22;;;26.95;29.20
65756;BME280;52489;47.502;18.940;2022-08-11T08:33:11;98613.25;;;27.37;28.52
65756;BME280;52489;47.502;18.940;2022-08-11T08:34:15;98613.31;;;27.30;28.47
65756;BME280;52489;47.502;18.940;2022-08-11T08:35:19;98617.16;;;27.26;29.40
65756;BME280;52489;47.502;18.940;2022-08-11T08:36:23;98610.66;;;27.23;29.46
65756;BME280;52489;47.502;18.940;2022-08-11T08:37:26;98610.62;;;27.27;28.64
65756;BME280;52489;47.502;18.940;2022-08-11T08:38:49;98613.69;;;27.29;29.30
65756;BME280;52489;47.502;18.940;2022-08-11T08:39:53;98608.84;;;27.65;28.68
65756;BME280;52489;47.502;18.940;2022-08-11T08:40:57;98613.34;;;27.86;28.54
65756;BME280;52489;47.502;18.940;2022-08-11T08:42:09;98613.78;;;27.74;28.83
65756;BME280;52489;47.502;18.940;2022-08-11T08:43:15;98609.06;;;27.92;28.29
65756;BME280;52489;47.502;18.940;2022-08-11T08:44:20;98612.09;;;27.98;27.93
65756;BME280;52489;47.502;18.940;2022-08-11T08:45:42;98602.22;;;28.29;27.02
65756;BME280;52489;47.502;18.940;2022-08-11T08:46:53;98604.84;;;28.74;27.02
65756;BME280;52489;47.502;18.940;2022-08-11T08:48:02;98602.69;;;28.92;26.88
65756;BME280;52489;47.502;18.940;2022-08-11T08:49:08;98604.78;;;28.81;27.37
65756;BME280;52489;47.502;18.940;2022-08-11T08:50:16;98607.44;;;28.85;27.13
65756;BME280;52489;47.502;18.940;2022-08-11T08:51:31;98592.59;;;29.00;27.43
65756;BME280;52489;47.502;18.940;2022-08-11T08:53:02;98601.66;;;29.44;26.97
65756;BME280;52489;47.502;18.940;2022-08-11T08:54:11;98588.75;;;29.28;26.54
65756;BME280;52489;47.502;18.940;2022-08-11T08:55:19;98594.62;;;29.23;25.41
65756;BME280;52489;47.502;18.940;2022-08-11T08:56:26;98600.22;;;29.36;26.82
65756;BME280;52489;47.502;18.940;2022-08-11T08:57:32;98593.75;;;29.02;27.53
65756;BME280;52489;47.502;18.940;2022-08-11T08:58:45;98584.09;;;29.05;26.74
65756;BME280;52489;47.502;18.940;2022-08-11T08:59:53;98602.41;;;28.83;27.21
65756;BME280;52489;47.502;18.940;2022-08-11T09:00:58;98591.87;;;29.54;26.25
65756;BME280;52489;47.502;18.940;2022-08-11T09:02:04;98595.38;;;29.51;25.22
65756;BME280;52489;47.502;18.940;2022-08-11T09:03:08;98593.69;;;29.60;25.30
65756;BME280;52489;47.502;18.940;2022-08-11T09:04:32;98587.88;;;29.38;25.63
65756;BME280;52489;47.502;18.940;2022-08-11T09:05:36;98596.88;;;30.06;25.03
65756;BME280;52489;47.502;18.940;2022-08-11T09:06:40;98589.88;;;30.32;24.10
65756;BME280;52489;47.502;18.940;2022-08-11T09:07:53;98596.66;;;30.40;23.63
65756;BME280;52489;47.502;18.940;2022-08-11T09:08:59;98591.72;;;30.78;23.26
65756;BME280;52489;47.502;18.940;2022-08-11T09:10:03;98586.56;;;30.44;22.92
65756;BME280;52489;47.502;18.940;2022-08-11T09:11:07;98595.91;;;30.40;23.31
65756;BME280;52489;47.502;18.940;2022-08-11T09:12:31;98585.09;;;30.40;22.58
65756;BME280;52489;47.502;18.940;2022-08-11T09:13:41;98585.88;;;30.60;22.18
65756;BME280;52489;47.502;18.940;2022-08-11T09:14:48;98576.63;;;30.77;22.63
65756;BME280;52489;47.502;18.940;2022-08-11T09:16:08;98585.66;;;30.71;22.54
65756;BME280;52489;47.502;18.940;2022-08-11T09:17:12;98571.72;;;30.92;22.00
65756;BME280;52489;47.502;18.940;2022-08-11T09:18:16;98581.66;;;30.79;22.56
65756;BME280;52489;47.502;18.940;2022-08-11T09:19:20;98585.78;;;30.44;23.71
65756;BME280;52489;47.502;18.940;2022-08-11T09:20:26;98576.59;;;30.41;23.09
65756;BME280;52489;47.502;18.940;2022-08-11T09:21:31;98572.56;;;30.06;22.95
65756;BME280;52489;47.502;18.940;2022-08-11T09:22:55;98571.50;;;30.43;22.86
65756;BME280;52489;47.502;18.940;2022-08-11T09:24:38;98568.87;;;30.40;23.71
65756;BME280;52489;47.502;18.940;2022-08-11T09:26:00;98572.66;;;29.99;23.11
65756;BME280;52489;47.502;18.940;2022-08-11T09:27:23;98562.97;;;30.25;23.52
65756;BME280;52489;47.502;18.940;2022-08-11T09:28:28;98571.03;;;30.48;22.45
65756;BME280;52489;47.502;18.940;2022-08-11T09:29:32;98561.25;;;30.34;23.25
65756;BME280;52489;47.502;18.940;2022-08-11T09:30:36;98569.22;;;30.42;23.41
65756;BME280;52489;47.502;18.940;2022-08-11T09:31:42;98570.31;;;30.24;22.93
65756;BME280;52489;47.502;18.940;2022-08-11T09:32:45;98562.34;;;29.70;22.87
65756;BME280;52489;47.502;18.940;2022-08-11T09:33:51;98572.31;;;29.73;22.68